sensor_id;sensor_type;location;lat;lon;timestamp;P1;durP1;ratioP1;P2;durP2;ratioP2
50631;SDS011;49583;45.590;-122.498;2024-02-15T00:01:25;1.10;;;0.90;;
50631;SDS011;49583;45.590;-122.498;2024-02-15T00:03:38;1.50;;;1.00;;
50631;SDS011;49583;45.590;-122.498;2024-02-15T00:05:51;0.90;;;0.90;;
50631;SDS011;49583;45.590;-122.498;2024-02-15T00:08:04;5.30;;;1.00;;
50631;SDS011;49583;45.590;-122.498;2024-02-15T00:10:17;1.00;;;0.90;;
50631;SDS011;49583;45.590;-122.498;2024-02-15T00:12:32;0.90;;;0.90;;
50631;SDS011;49583;45.590;-122.498;2024-02-15T00:14:45;1.20;;;1.10;;
50631;SDS011;49583;45.590;-122.498;2024-02-15T00:16:58;2.70;;;0.90;;
50631;SDS011;49583;45.590;-122.498;2024-02-15T00:19:12;3.40;;;1.00;;
50631;SDS011;49583;45.590;-122.498;2024-02-15T00:21:25;1.90;;;0.90;;
50631;SDS011;49583;45.590;-122.498;2024-02-15T00:23:37;2.00;;;0.80;;
50631;SDS011;49583;45.590;-122.498;2024-02-15T00:25:50;2.10;;;1.00;;
50631;SDS011;49583;45.590;-122.498;2024-02-15T00:28:03;1.00;;;0.90;;
50631;SDS011;49583;45.590;-122.498;2024-02-15T00:30:17;1.90;;;0.80;;
50631;SDS011;49583;45.590;-122.498;2024-02-15T00:32:30;0.70;;;0.60;;
50631;SDS011;49583;45.590;-122.498;2024-02-15T00:34:44;1.60;;;0.70;;
50631;SDS011;49583;45.590;-122.498;2024-02-15T00:37:00;5.40;;;1.40;;
50631;SDS011;49583;45.590;-122.498;2024-02-15T00:39:13;2.00;;;0.90;;
50631;SDS011;49583;45.590;-122.498;2024-02-15T00:41:27;1.10;;;0.80;;
50631;SDS011;49583;45.590;-122.498;2024-02-15T00:43:41;1.40;;;0.90;;
50631;SDS011;49583;45.590;-122.498;2024-02-15T00:45:54;1.60;;;1.00;;
50631;SDS011;49583;45.590;-122.498;2024-02-15T00:48:07;1.00;;;0.80;;
50631;SDS011;49583;45.590;-122.498;2024-02-15T00:50:20;0.80;;;0.70;;
50631;SDS011;49583;45.590;-122.498;2024-02-15T00:52:33;0.60;;;0.60;;
50631;SDS011;49583;45.590;-122.498;2024-02-15T00:54:46;0.80;;;0.80;;
50631;SDS011;49583;45.590;-122.498;2024-02-15T00:57:00;7.20;;;1.60;;
50631;SDS011;49583;45.590;-122.498;2024-02-15T00:59:13;2.80;;;1.00;;
50631;SDS011;49583;45.590;-122.498;2024-02-15T01:01:26;1.60;;;0.90;;
50631;SDS011;49583;45.590;-122.498;2024-02-15T01:03:39;2.10;;;1.00;;
50631;SDS011;49583;45.590;-122.498;2024-02-15T01:05:52;0.70;;;0.70;;
50631;SDS011;49583;45.590;-122.498;2024-02-15T01:08:05;1.40;;;0.80;;
50631;SDS011;49583;45.590;-122.498;2024-02-15T01:10:19;1.00;;;1.20;;
50631;SDS011;49583;45.590;-122.498;2024-02-15T01:12:39;1.20;;;1.00;;
50631;SDS011;49583;45.590;-122.498;2024-02-15T01:14:52;5.20;;;1.00;;
50631;SDS011;49583;45.590;-122.498;2024-02-15T01:17:07;1.70;;;1.00;;
50631;SDS011;49583;45.590;-122.498;2024-02-15T01:19:19;2.70;;;0.90;;
50631;SDS011;49583;45.590;-122.498;2024-02-15T01:21:32;1.90;;;1.00;;
50631;SDS011;49583;45.590;-122.498;2024-02-15T01:23:45;2.00;;;1.30;;
50631;SDS011;49583;45.590;-122.498;2024-02-15T01:26:01;1.80;;;1.40;;
50631;SDS011;49583;45.590;-122.498;2024-02-15T01:28:14;2.80;;;1.70;;
50631;SDS011;49583;45.590;-122.498;2024-02-15T01:30:27;3.30;;;1.80;;
50631;SDS011;49583;45.590;-122.498;2024-02-15T01:32:40;4.00;;;1.50;;
50631;SDS011;49583;45.590;-122.498;2024-02-15T01:34:53;1.40;;;1.30;;
50631;SDS011;49583;45.590;-122.498;2024-02-15T01:37:06;1.50;;;1.20;;
50631;SDS011;49583;45.590;-122.498;2024-02-15T01:39:18;2.40;;;1.00;;
50631;SDS011;49583;45.590;-122.498;2024-02-15T01:41:32;0.90;;;0.90;;
50631;SDS011;49583;45.590;-122.498;2024-02-15T01:43:45;1.20;;;1.00;;
50631;SDS011;49583;45.590;-122.498;2024-02-15T01:46:01;1.40;;;0.90;;
50631;SDS011;49583;45.590;-122.498;2024-02-15T01:48:17;0.80;;;0.80;;
50631;SDS011;49583;45.590;-122.498;2024-02-15T01:50:30;1.50;;;1.00;;
50631;SDS011;49583;45.590;-122.498;2024-02-15T01:52:44;2.80;;;0.90;;
50631;SDS011;49583;45.590;-122.498;2024-02-15T01:55:01;1.30;;;0.70;;
50631;SDS011;49583;45.590;-122.498;2024-02-15T01:57:17;2.00;;;1.00;;
50631;SDS011;49583;45.590;-122.498;2024-02-15T01:59:30;0.90;;;0.90;;
50631;SDS011;49583;45.590;-122.498;2024-02-15T02:01:43;0.90;;;0.90;;
50631;SDS011;49583;45.590;-122.498;2024-02-15T02:03:57;0.70;;;0.70;;
50631;SDS011;49583;45.590;-122.498;2024-02-15T02:06:10;2.20;;;0.70;;
50631;SDS011;49583;45.590;-122.498;2024-02-15T02:08:23;1.30;;;0.90;;
50631;SDS011;49583;45.590;-122.498;2024-02-15T02:10:35;1.00;;;0.90;;
50631;SDS011;49583;45.590;-122.498;2024-02-15T02:12:50;2.10;;;0.80;;
50631;SDS011;49583;45.590;-122.498;2024-02-15T02:15:03;1.50;;;1.00;;
50631;SDS011;49583;45.590;-122.498;2024-02-15T02:17:19;2.50;;;0.80;;
50631;SDS011;49583;45.590;-122.498;2024-02-15T02:19:31;3.60;;;1.40;;
50631;SDS011;49583;45.590;-122.498;2024-02-15T02:21:45;1.50;;;1.00;;
50631;SDS011;49583;45.590;-122.498;2024-02-15T02:23:58;1.10;;;1.00;;
50631;SDS011;49583;45.590;-122.498;2024-02-15T02:26:14;1.40;;;1.00;;
50631;SDS011;49583;45.590;-122.498;2024-02-15T02:28:28;0.90;;;0.70;;
50631;SDS011;49583;45.590;-122.498;2024-02-15T02:30:41;1.40;;;0.80;;
50631;SDS011;49583;45.590;-122.498;2024-02-15T02:32:54;0.90;;;0.80;;
50631;SDS011;49583;45.590;-122.498;2024-02-15T02:35:07;0.60;;;0.60;;
50631;SDS011;49583;45.590;-122.498;2024-02-15T02:37:21;0.80;;;0.60;;
50631;SDS011;49583;45.590;-122.498;2024-02-15T02:39:34;0.70;;;0.70;;
50631;SDS011;49583;45.590;-122.498;2024-02-15T02:41:46;2.40;;;0.90;;
50631;SDS011;49583;45.590;-122.498;2024-02-15T02:43:59;1.90;;;0.90;;
50631;SDS011;49583;45.590;-122.498;2024-02-15T02:46:12;1.20;;;0.80;;
50631;SDS011;49583;45.590;-122.498;2024-02-15T02:48:25;2.10;;;0.60;;
50631;SDS011;49583;45.590;-122.498;2024-02-15T02:50:38;0.70;;;0.70;;
50631;SDS011;49583;45.590;-122.498;2024-02-15T02:52:52;0.50;;;0.50;;
50631;SDS011;49583;45.590;-122.498;2024-02-15T02:55:05;0.90;;;0.70;;
50631;SDS011;49583;45.590;-122.498;2024-02-15T02:57:18;0.50;;;0.50;;
50631;SDS011;49583;45.590;-122.498;2024-02-15T02:59:31;1.40;;;1.00;;
50631;SDS011;49583;45.590;-122.498;2024-02-15T03:01:47;1.10;;;0.70;;
50631;SDS011;49583;45.590;-122.498;2024-02-15T03:04:04;0.60;;;0.60;;
50631;SDS011;49583;45.590;-122.498;2024-02-15T03:06:17;0.70;;;0.70;;
50631;SDS011;49583;45.590;-122.498;2024-02-15T03:08:32;0.60;;;0.60;;
50631;SDS011;49583;45.590;-122.498;2024-02-15T03:10:45;0.90;;;0.70;;
50631;SDS011;49583;45.590;-122.498;2024-02-15T03:12:59;0.70;;;0.70;;
50631;SDS011;49583;45.590;-122.498;2024-02-15T03:15:13;0.70;;;0.70;;
50631;SDS011;49583;45.590;-122.498;2024-02-15T03:17:26;0.70;;;0.70;;
50631;SDS011;49583;45.590;-122.498;2024-02-15T03:19:38;0.90;;;0.50;;
50631;SDS011;49583;45.590;-122.498;2024-02-15T03:21:51;0.60;;;0.60;;
50631;SDS011;49583;45.590;-122.498;2024-02-15T03:24:04;0.50;;;0.50;;
50631;SDS011;49583;45.590;-122.498;2024-02-15T03:26:19;1.80;;;0.60;;
50631;SDS011;49583;45.590;-122.498;2024-02-15T03:28:39;0.70;;;0.70;;
50631;SDS011;49583;45.590;-122.498;2024-02-15T03:30:52;0.80;;;0.80;;
50631;SDS011;49583;45.590;-122.498;2024-02-15T03:33:06;0.70;;;0.70;;
50631;SDS011;49583;45.590;-122.498;2024-02-15T03:35:20;0.70;;;0.70;;
50631;SDS011;49583;45.590;-122.498;2024-02-15T03:37:33;0.80;;;0.70;;
50631;SDS011;49583;45.590;-122.498;2024-02-15T03:39:47;0.60;;;0.60;;
50631;SDS011;49583;45.590;-122.498;2024-02-15T03:42:00;0.60;;;0.50;;
50631;SDS011;49583;45.590;-122.498;2024-02-15T03:44:13;0.60;;;0.60;;
50631;SDS011;49583;45.590;-122.498;2024-02-15T03:46:27;1.00;;;0.60;;
50631;SDS011;49583;45.590;-122.498;2024-02-15T03:48:41;2.80;;;0.60;;
50631;SDS011;49583;45.590;-122.498;2024-02-15T03:50:54;0.50;;;0.50;;
50631;SDS011;49583;45.590;-122.498;2024-02-15T03:53:09;1.20;;;0.70;;
50631;SDS011;49583;45.590;-122.498;2024-02-15T03:55:22;0.60;;;0.60;;
50631;SDS011;49583;45.590;-122.498;2024-02-15T03:57:35;3.20;;;1.10;;
50631;SDS011;49583;45.590;-122.498;2024-02-15T03:59:51;1.10;;;0.60;;
50631;SDS011;49583;45.590;-122.498;2024-02-15T04:02:05;0.90;;;0.80;;
50631;SDS011;49583;45.590;-122.498;2024-02-15T04:04:22;1.00;;;0.70;;
50631;SDS011;49583;45.590;-122.498;2024-02-15T04:06:37;1.60;;;0.80;;
50631;SDS011;49583;45.590;-122.498;2024-02-15T04:08:50;0.60;;;0.60;;
50631;SDS011;49583;45.590;-122.498;2024-02-15T04:11:03;1.00;;;0.80;;
50631;SDS011;49583;45.590;-122.498;2024-02-15T04:13:17;0.70;;;0.70;;
50631;SDS011;49583;45.590;-122.498;2024-02-15T04:15:31;0.80;;;0.80;;
50631;SDS011;49583;45.590;-122.498;2024-02-15T04:17:45;1.40;;;0.90;;
50631;SDS011;49583;45.590;-122.498;2024-02-15T04:20:04;1.30;;;0.50;;
50631;SDS011;49583;45.590;-122.498;2024-02-15T04:22:19;0.70;;;0.70;;
50631;SDS011;49583;45.590;-122.498;2024-02-15T04:24:32;2.00;;;0.60;;
50631;SDS011;49583;45.590;-122.498;2024-02-15T04:26:47;0.90;;;0.70;;
50631;SDS011;49583;45.590;-122.498;2024-02-15T04:29:00;1.00;;;0.90;;
50631;SDS011;49583;45.590;-122.498;2024-02-15T04:31:15;0.90;;;0.60;;
50631;SDS011;49583;45.590;-122.498;2024-02-15T04:33:34;0.80;;;0.80;;
50631;SDS011;49583;45.590;-122.498;2024-02-15T04:35:48;0.60;;;0.60;;
50631;SDS011;49583;45.590;-122.498;2024-02-15T04:38:00;0.70;;;0.70;;
50631;SDS011;49583;45.590;-122.498;2024-02-15T04:40:16;0.80;;;0.80;;
50631;SDS011;49583;45.590;-122.498;2024-02-15T04:42:28;0.60;;;0.60;;
50631;SDS011;49583;45.590;-122.498;2024-02-15T04:44:41;0.80;;;0.80;;
50631;SDS011;49583;45.590;-122.498;2024-02-15T04:46:54;0.70;;;1.10;;
50631;SDS011;49583;45.590;-122.498;2024-02-15T04:49:08;0.50;;;0.50;;
50631;SDS011;49583;45.590;-122.498;2024-02-15T04:51:21;0.90;;;0.60;;
50631;SDS011;49583;45.590;-122.498;2024-02-15T04:53:34;0.60;;;0.60;;
50631;SDS011;49583;45.590;-122.498;2024-02-15T04:55:48;1.30;;;0.80;;
50631;SDS011;49583;45.590;-122.498;2024-02-15T04:58:02;0.80;;;0.70;;
50631;SDS011;49583;45.590;-122.498;2024-02-15T05:00:18;1.10;;;0.70;;
50631;SDS011;49583;45.590;-122.498;2024-02-15T05:02:32;1.80;;;0.90;;
50631;SDS011;49583;45.590;-122.498;2024-02-15T05:04:48;1.30;;;0.80;;
50631;SDS011;49583;45.590;-122.498;2024-02-15T05:07:04;0.60;;;0.60;;
50631;SDS011;49583;45.590;-122.498;2024-02-15T05:09:16;0.70;;;0.70;;
50631;SDS011;49583;45.590;-122.498;2024-02-15T05:11:30;1.00;;;0.90;;
50631;SDS011;49583;45.590;-122.498;2024-02-15T05:13:44;0.70;;;0.70;;
50631;SDS011;49583;45.590;-122.498;2024-02-15T05:16:03;0.80;;;0.70;;
50631;SDS011;49583;45.590;-122.498;2024-02-15T05:18:37;0.80;;;0.80;;
50631;SDS011;49583;45.590;-122.498;2024-02-15T05:20:50;0.80;;;0.80;;
50631;SDS011;49583;45.590;-122.498;2024-02-15T05:23:03;0.80;;;0.80;;
50631;SDS011;49583;45.590;-122.498;2024-02-15T05:25:15;0.70;;;0.70;;
50631;SDS011;49583;45.590;-122.498;2024-02-15T05:27:32;0.90;;;0.70;;
50631;SDS011;49583;45.590;-122.498;2024-02-15T05:29:45;0.70;;;0.70;;
50631;SDS011;49583;45.590;-122.498;2024-02-15T05:32:00;0.90;;;0.90;;
50631;SDS011;49583;45.590;-122.498;2024-02-15T05:34:17;0.80;;;0.80;;
50631;SDS011;49583;45.590;-122.498;2024-02-15T05:36:33;0.80;;;0.80;;
50631;SDS011;49583;45.590;-122.498;2024-02-15T05:38:45;0.60;;;0.60;;
50631;SDS011;49583;45.590;-122.498;2024-02-15T05:40:59;1.00;;;0.90;;
50631;SDS011;49583;45.590;-122.498;2024-02-15T05:43:11;0.80;;;0.80;;
50631;SDS011;49583;45.590;-122.498;2024-02-15T05:45:30;0.80;;;0.80;;
50631;SDS011;49583;45.590;-122.498;2024-02-15T05:47:45;2.50;;;0.90;;
50631;SDS011;49583;45.590;-122.498;2024-02-15T05:49:57;1.40;;;0.80;;
50631;SDS011;49583;45.590;-122.498;2024-02-15T05:52:13;0.70;;;0.70;;
50631;SDS011;49583;45.590;-122.498;2024-02-15T05:54:26;1.00;;;1.00;;
50631;SDS011;49583;45.590;-122.498;2024-02-15T05:56:38;0.70;;;0.70;;
50631;SDS011;49583;45.590;-122.498;2024-02-15T05:58:51;0.70;;;0.70;;
50631;SDS011;49583;45.590;-122.498;2024-02-15T06:01:05;0.70;;;0.70;;
50631;SDS011;49583;45.590;-122.498;2024-02-15T06:03:20;0.80;;;0.80;;
50631;SDS011;49583;45.590;-122.498;2024-02-15T06:05:34;3.20;;;0.80;;
50631;SDS011;49583;45.590;-122.498;2024-02-15T06:07:47;1.60;;;1.50;;
50631;SDS011;49583;45.590;-122.498;2024-02-15T06:10:00;0.70;;;0.70;;
50631;SDS011;49583;45.590;-122.498;2024-02-15T06:12:15;0.80;;;0.60;;
50631;SDS011;49583;45.590;-122.498;2024-02-15T06:14:28;0.80;;;0.80;;
50631;SDS011;49583;45.590;-122.498;2024-02-15T06:16:43;0.60;;;0.60;;
50631;SDS011;49583;45.590;-122.498;2024-02-15T06:18:56;0.70;;;0.70;;
50631;SDS011;49583;45.590;-122.498;2024-02-15T06:21:09;2.50;;;0.60;;
50631;SDS011;49583;45.590;-122.498;2024-02-15T06:23:22;0.60;;;0.60;;
50631;SDS011;49583;45.590;-122.498;2024-02-15T06:25:35;0.60;;;0.60;;
50631;SDS011;49583;45.590;-122.498;2024-02-15T06:27:49;0.60;;;0.60;;
50631;SDS011;49583;45.590;-122.498;2024-02-15T06:30:07;0.60;;;0.60;;
50631;SDS011;49583;45.590;-122.498;2024-02-15T06:32:37;0.60;;;0.60;;
50631;SDS011;49583;45.590;-122.498;2024-02-15T06:35:06;0.70;;;0.70;;
50631;SDS011;49583;45.590;-122.498;2024-02-15T06:37:38;0.40;;;0.40;;
50631;SDS011;49583;45.590;-122.498;2024-02-15T06:40:08;0.70;;;0.70;;
50631;SDS011;49583;45.590;-122.498;2024-02-15T06:42:21;0.60;;;0.60;;
50631;SDS011;49583;45.590;-122.498;2024-02-15T06:44:34;0.70;;;0.70;;
50631;SDS011;49583;45.590;-122.498;2024-02-15T06:46:48;0.70;;;0.70;;
50631;SDS011;49583;45.590;-122.498;2024-02-15T06:49:00;0.60;;;0.60;;
50631;SDS011;49583;45.590;-122.498;2024-02-15T06:51:14;0.60;;;0.60;;
50631;SDS011;49583;45.590;-122.498;2024-02-15T06:53:27;1.20;;;0.70;;
50631;SDS011;49583;45.590;-122.498;2024-02-15T06:55:40;0.90;;;0.60;;
50631;SDS011;49583;45.590;-122.498;2024-02-15T06:57:54;0.60;;;0.60;;
50631;SDS011;49583;45.590;-122.498;2024-02-15T07:00:07;0.80;;;0.70;;
50631;SDS011;49583;45.590;-122.498;2024-02-15T07:02:23;2.00;;;0.60;;
50631;SDS011;49583;45.590;-122.498;2024-02-15T07:04:37;0.70;;;0.70;;
50631;SDS011;49583;45.590;-122.498;2024-02-15T07:06:50;0.80;;;0.80;;
50631;SDS011;49583;45.590;-122.498;2024-02-15T07:09:03;1.40;;;0.70;;
50631;SDS011;49583;45.590;-122.498;2024-02-15T07:11:17;0.70;;;0.70;;
50631;SDS011;49583;45.590;-122.498;2024-02-15T07:13:30;0.60;;;0.60;;
50631;SDS011;49583;45.590;-122.498;2024-02-15T07:15:44;0.50;;;0.50;;
50631;SDS011;49583;45.590;-122.498;2024-02-15T07:17:57;0.80;;;0.80;;
50631;SDS011;49583;45.590;-122.498;2024-02-15T07:20:10;1.10;;;0.80;;
50631;SDS011;49583;45.590;-122.498;2024-02-15T07:22:24;1.40;;;0.60;;
50631;SDS011;49583;45.590;-122.498;2024-02-15T07:24:39;1.30;;;0.70;;
50631;SDS011;49583;45.590;-122.498;2024-02-15T07:26:52;0.70;;;0.70;;
50631;SDS011;49583;45.590;-122.498;2024-02-15T07:29:05;0.70;;;0.70;;
50631;SDS011;49583;45.590;-122.498;2024-02-15T07:31:20;1.00;;;0.50;;
50631;SDS011;49583;45.590;-122.498;2024-02-15T07:33:37;0.70;;;0.70;;
50631;SDS011;49583;45.590;-122.498;2024-02-15T07:35:50;0.80;;;0.80;;
50631;SDS011;49583;45.590;-122.498;2024-02-15T07:38:04;0.80;;;0.80;;
50631;SDS011;49583;45.590;-122.498;2024-02-15T07:40:17;0.70;;;0.70;;
50631;SDS011;49583;45.590;-122.498;2024-02-15T07:42:30;0.40;;;0.40;;
50631;SDS011;49583;45.590;-122.498;2024-02-15T07:44:43;0.60;;;0.60;;
50631;SDS011;49583;45.590;-122.498;2024-02-15T07:46:55;0.60;;;0.60;;
50631;SDS011;49583;45.590;-122.498;2024-02-15T07:49:10;0.80;;;0.80;;
50631;SDS011;49583;45.590;-122.498;2024-02-15T07:51:23;0.60;;;0.60;;
50631;SDS011;49583;45.590;-122.498;2024-02-15T07:53:36;0.80;;;0.80;;
50631;SDS011;49583;45.590;-122.498;2024-02-15T07:55:50;0.60;;;0.60;;
50631;SDS011;49583;45.590;-122.498;2024-02-15T07:58:03;0.60;;;0.50;;
50631;SDS011;49583;45.590;-122.498;2024-02-15T08:00:16;0.70;;;0.60;;
50631;SDS011;49583;45.590;-122.498;2024-02-15T08:02:29;0.70;;;0.70;;
50631;SDS011;49583;45.590;-122.498;2024-02-15T08:04:42;0.60;;;0.60;;
50631;SDS011;49583;45.590;-122.498;2024-02-15T08:06:56;1.00;;;0.90;;
50631;SDS011;49583;45.590;-122.498;2024-02-15T08:09:08;0.70;;;0.70;;
50631;SDS011;49583;45.590;-122.498;2024-02-15T08:11:21;0.70;;;0.70;;
50631;SDS011;49583;45.590;-122.498;2024-02-15T08:13:34;1.20;;;0.70;;
50631;SDS011;49583;45.590;-122.498;2024-02-15T08:15:47;0.60;;;0.60;;
50631;SDS011;49583;45.590;-122.498;2024-02-15T08:18:00;0.60;;;0.60;;
50631;SDS011;49583;45.590;-122.498;2024-02-15T08:20:17;0.60;;;0.60;;
50631;SDS011;49583;45.590;-122.498;2024-02-15T08:22:30;0.90;;;0.70;;
50631;SDS011;49583;45.590;-122.498;2024-02-15T08:24:44;0.80;;;0.70;;
50631;SDS011;49583;45.590;-122.498;2024-02-15T08:26:57;0.70;;;0.70;;
50631;SDS011;49583;45.590;-122.498;2024-02-15T08:29:12;0.60;;;0.60;;
50631;SDS011;49583;45.590;-122.498;2024-02-15T08:31:25;0.60;;;0.60;;
50631;SDS011;49583;45.590;-122.498;2024-02-15T08:33:38;1.00;;;0.60;;
50631;SDS011;49583;45.590;-122.498;2024-02-15T08:35:52;0.60;;;0.60;;
50631;SDS011;49583;45.590;-122.498;2024-02-15T08:38:05;2.20;;;0.70;;
50631;SDS011;49583;45.590;-122.498;2024-02-15T08:40:18;0.60;;;0.60;;
50631;SDS011;49583;45.590;-122.498;2024-02-15T08:42:32;0.60;;;0.60;;
50631;SDS011;49583;45.590;-122.498;2024-02-15T08:44:45;0.70;;;0.70;;
50631;SDS011;49583;45.590;-122.498;2024-02-15T08:46:59;0.60;;;0.60;;
50631;SDS011;49583;45.590;-122.498;2024-02-15T08:49:12;0.60;;;0.60;;
50631;SDS011;49583;45.590;-122.498;2024-02-15T08:51:25;0.70;;;0.70;;
50631;SDS011;49583;45.590;-122.498;2024-02-15T08:53:37;0.50;;;0.50;;
50631;SDS011;49583;45.590;-122.498;2024-02-15T08:55:50;0.50;;;0.50;;
50631;SDS011;49583;45.590;-122.498;2024-02-15T08:58:04;0.60;;;0.60;;
50631;SDS011;49583;45.590;-122.498;2024-02-15T09:00:17;0.60;;;0.60;;
50631;SDS011;49583;45.590;-122.498;2024-02-15T09:02:30;0.50;;;0.50;;
50631;SDS011;49583;45.590;-122.498;2024-02-15T09:04:44;0.70;;;0.60;;
50631;SDS011;49583;45.590;-122.498;2024-02-15T09:06:56;0.50;;;0.50;;
50631;SDS011;49583;45.590;-122.498;2024-02-15T09:09:11;0.40;;;0.40;;
50631;SDS011;49583;45.590;-122.498;2024-02-15T09:11:27;0.60;;;0.60;;
50631;SDS011;49583;45.590;-122.498;2024-02-15T09:13:42;0.50;;;0.50;;
50631;SDS011;49583;45.590;-122.498;2024-02-15T09:15:57;0.50;;;0.50;;
50631;SDS011;49583;45.590;-122.498;2024-02-15T09:18:10;0.60;;;0.60;;
50631;SDS011;49583;45.590;-122.498;2024-02-15T09:20:25;0.60;;;0.60;;
50631;SDS011;49583;45.590;-122.498;2024-02-15T09:22:39;1.20;;;0.70;;
50631;SDS011;49583;45.590;-122.498;2024-02-15T09:24:53;0.50;;;0.50;;
50631;SDS011;49583;45.590;-122.498;2024-02-15T09:27:06;0.40;;;0.40;;
50631;SDS011;49583;45.590;-122.498;2024-02-15T09:29:19;0.60;;;0.60;;
50631;SDS011;49583;45.590;-122.498;2024-02-15T09:31:33;0.60;;;0.60;;
50631;SDS011;49583;45.590;-122.498;2024-02-15T09:33:48;0.70;;;0.60;;
50631;SDS011;49583;45.590;-122.498;2024-02-15T09:36:00;0.60;;;0.60;;
50631;SDS011;49583;45.590;-122.498;2024-02-15T09:38:13;1.50;;;0.60;;
50631;SDS011;49583;45.590;-122.498;2024-02-15T09:40:27;0.60;;;0.60;;
50631;SDS011;49583;45.590;-122.498;2024-02-15T09:42:42;0.50;;;0.50;;
50631;SDS011;49583;45.590;-122.498;2024-02-15T09:44:54;0.40;;;0.40;;
50631;SDS011;49583;45.590;-122.498;2024-02-15T09:47:08;0.50;;;0.50;;
50631;SDS011;49583;45.590;-122.498;2024-02-15T09:49:22;0.70;;;0.70;;
50631;SDS011;49583;45.590;-122.498;2024-02-15T09:51:37;0.40;;;0.40;;
50631;SDS011;49583;45.590;-122.498;2024-02-15T09:53:52;0.60;;;0.60;;
50631;SDS011;49583;45.590;-122.498;2024-02-15T09:56:06;0.50;;;0.50;;
50631;SDS011;49583;45.590;-122.498;2024-02-15T09:58:19;0.40;;;0.40;;
50631;SDS011;49583;45.590;-122.498;2024-02-15T10:00:33;1.90;;;0.60;;
50631;SDS011;49583;45.590;-122.498;2024-02-15T10:02:47;0.60;;;0.60;;
50631;SDS011;49583;45.590;-122.498;2024-02-15T10:05:03;0.60;;;0.60;;
50631;SDS011;49583;45.590;-122.498;2024-02-15T10:07:19;0.50;;;0.50;;
50631;SDS011;49583;45.590;-122.498;2024-02-15T10:09:32;0.60;;;0.60;;
50631;SDS011;49583;45.590;-122.498;2024-02-15T10:11:49;0.70;;;0.70;;
50631;SDS011;49583;45.590;-122.498;2024-02-15T10:14:12;0.60;;;0.60;;
50631;SDS011;49583;45.590;-122.498;2024-02-15T10:16:25;0.50;;;0.50;;
50631;SDS011;49583;45.590;-122.498;2024-02-15T10:18:42;0.40;;;0.40;;
50631;SDS011;49583;45.590;-122.498;2024-02-15T10:20:59;0.40;;;0.40;;
50631;SDS011;49583;45.590;-122.498;2024-02-15T10:23:11;0.70;;;0.50;;
50631;SDS011;49583;45.590;-122.498;2024-02-15T10:25:25;0.60;;;0.60;;
50631;SDS011;49583;45.590;-122.498;2024-02-15T10:27:39;0.50;;;0.50;;
50631;SDS011;49583;45.590;-122.498;2024-02-15T10:29:54;0.60;;;0.60;;
50631;SDS011;49583;45.590;-122.498;2024-02-15T10:32:24;0.60;;;0.60;;
50631;SDS011;49583;45.590;-122.498;2024-02-15T10:34:46;0.50;;;0.50;;
50631;SDS011;49583;45.590;-122.498;2024-02-15T10:37:10;0.70;;;0.60;;
50631;SDS011;49583;45.590;-122.498;2024-02-15T10:39:24;1.70;;;0.50;;
50631;SDS011;49583;45.590;-122.498;2024-02-15T10:41:37;0.50;;;0.50;;
50631;SDS011;49583;45.590;-122.498;2024-02-15T10:43:51;0.40;;;0.40;;
50631;SDS011;49583;45.590;-122.498;2024-02-15T10:46:03;0.40;;;0.40;;
50631;SDS011;49583;45.590;-122.498;2024-02-15T10:48:18;0.40;;;0.40;;
50631;SDS011;49583;45.590;-122.498;2024-02-15T10:50:30;0.90;;;0.50;;
50631;SDS011;49583;45.590;-122.498;2024-02-15T10:52:47;0.40;;;0.40;;
50631;SDS011;49583;45.590;-122.498;2024-02-15T10:55:04;0.50;;;0.50;;
50631;SDS011;49583;45.590;-122.498;2024-02-15T10:57:21;0.60;;;0.60;;
50631;SDS011;49583;45.590;-122.498;2024-02-15T10:59:36;0.50;;;0.50;;
50631;SDS011;49583;45.590;-122.498;2024-02-15T11:01:53;0.50;;;0.50;;
50631;SDS011;49583;45.590;-122.498;2024-02-15T11:04:12;0.50;;;0.50;;
50631;SDS011;49583;45.590;-122.498;2024-02-15T11:06:29;0.40;;;0.40;;
50631;SDS011;49583;45.590;-122.498;2024-02-15T11:08:44;0.80;;;0.80;;
50631;SDS011;49583;45.590;-122.498;2024-02-15T11:10:58;0.40;;;0.40;;
50631;SDS011;49583;45.590;-122.498;2024-02-15T11:13:12;0.50;;;0.50;;
50631;SDS011;49583;45.590;-122.498;2024-02-15T11:15:44;0.50;;;0.50;;
50631;SDS011;49583;45.590;-122.498;2024-02-15T11:17:59;0.40;;;0.40;;
50631;SDS011;49583;45.590;-122.498;2024-02-15T11:20:16;0.50;;;0.50;;
50631;SDS011;49583;45.590;-122.498;2024-02-15T11:23:00;0.50;;;0.50;;
50631;SDS011;49583;45.590;-122.498;2024-02-15T11:25:13;0.50;;;0.50;;
50631;SDS011;49583;45.590;-122.498;2024-02-15T11:27:44;0.60;;;0.60;;
50631;SDS011;49583;45.590;-122.498;2024-02-15T11:29:57;0.40;;;0.40;;
50631;SDS011;49583;45.590;-122.498;2024-02-15T11:32:36;0.50;;;0.50;;
50631;SDS011;49583;45.590;-122.498;2024-02-15T11:34:52;0.60;;;0.60;;
50631;SDS011;49583;45.590;-122.498;2024-02-15T11:40:07;0.50;;;0.50;;
50631;SDS011;49583;45.590;-122.498;2024-02-15T11:42:27;0.70;;;0.60;;
50631;SDS011;49583;45.590;-122.498;2024-02-15T11:44:40;0.50;;;0.50;;
50631;SDS011;49583;45.590;-122.498;2024-02-15T11:47:09;0.50;;;0.50;;
50631;SDS011;49583;45.590;-122.498;2024-02-15T11:49:24;0.50;;;0.50;;
50631;SDS011;49583;45.590;-122.498;2024-02-15T11:51:37;0.50;;;0.50;;
50631;SDS011;49583;45.590;-122.498;2024-02-15T11:53:59;0.40;;;0.40;;
50631;SDS011;49583;45.590;-122.498;2024-02-15T11:56:16;0.40;;;0.40;;
50631;SDS011;49583;45.590;-122.498;2024-02-15T11:58:29;0.40;;;0.40;;
50631;SDS011;49583;45.590;-122.498;2024-02-15T12:00:49;0.50;;;0.50;;
50631;SDS011;49583;45.590;-122.498;2024-02-15T12:03:24;0.40;;;0.40;;
50631;SDS011;49583;45.590;-122.498;2024-02-15T12:06:09;0.30;;;0.30;;
50631;SDS011;49583;45.590;-122.498;2024-02-15T12:08:45;0.40;;;0.40;;
50631;SDS011;49583;45.590;-122.498;2024-02-15T12:11:15;0.40;;;0.40;;
50631;SDS011;49583;45.590;-122.498;2024-02-15T12:13:45;0.50;;;0.50;;
50631;SDS011;49583;45.590;-122.498;2024-02-15T12:16:18;0.30;;;0.30;;
50631;SDS011;49583;45.590;-122.498;2024-02-15T12:18:47;0.30;;;0.30;;
50631;SDS011;49583;45.590;-122.498;2024-02-15T12:21:02;0.30;;;0.30;;
50631;SDS011;49583;45.590;-122.498;2024-02-15T12:23:17;0.40;;;0.40;;
50631;SDS011;49583;45.590;-122.498;2024-02-15T12:25:30;0.30;;;0.30;;
50631;SDS011;49583;45.590;-122.498;2024-02-15T12:27:44;0.50;;;0.50;;
50631;SDS011;49583;45.590;-122.498;2024-02-15T12:30:03;0.40;;;0.40;;
50631;SDS011;49583;45.590;-122.498;2024-02-15T12:32:21;0.40;;;0.40;;
50631;SDS011;49583;45.590;-122.498;2024-02-15T12:34:35;0.40;;;0.40;;
50631;SDS011;49583;45.590;-122.498;2024-02-15T12:37:04;0.40;;;0.40;;
50631;SDS011;49583;45.590;-122.498;2024-02-15T12:39:23;0.30;;;0.30;;
50631;SDS011;49583;45.590;-122.498;2024-02-15T12:41:40;0.50;;;0.50;;
50631;SDS011;49583;45.590;-122.498;2024-02-15T12:43:59;0.50;;;0.50;;
50631;SDS011;49583;45.590;-122.498;2024-02-15T12:46:13;0.40;;;0.40;;
50631;SDS011;49583;45.590;-122.498;2024-02-15T12:48:30;0.40;;;0.40;;
50631;SDS011;49583;45.590;-122.498;2024-02-15T12:50:43;0.50;;;0.50;;
50631;SDS011;49583;45.590;-122.498;2024-02-15T12:52:56;0.40;;;0.40;;
50631;SDS011;49583;45.590;-122.498;2024-02-15T12:55:14;0.30;;;0.30;;
50631;SDS011;49583;45.590;-122.498;2024-02-15T12:57:28;0.50;;;0.50;;
50631;SDS011;49583;45.590;-122.498;2024-02-15T12:59:41;0.30;;;0.30;;
50631;SDS011;49583;45.590;-122.498;2024-02-15T13:01:54;0.40;;;0.40;;